KBAM/BAM METAR and TAF weather

Enter ICAO airport designator
Station Type Date Time Source
KBAM METAR 2018/12/13 15:35 UTC NOAA

KBAM 131535Z AUTO 11003KT 10SM CLR M11/M11 A3043 RMK AO1


Station Type Date Time Source
KBAM Decoded METAR 2018/12/13 15:35 UTC NOAA

Station name not available
Dec 13, 2018 - 10:35 AM EST / 2018.12.13 1535 UTC
Wind: from the ESE (110 degrees) at 3 MPH (3 KT):0
Visibility: 10 mile(s):0
Sky conditions: clear
Temperature: 12 F (-11 C)
Dew Point: 12 F (-11 C)
Relative Humidity: 100%
Pressure (altimeter): 30.43 in. Hg (1030 hPa)
ob: KBAM 131535Z AUTO 11003KT 10SM CLR M11/M11 A3043 RMK AO1
cycle: 15

Station Type Date Time Source
KBAM TAF 2018/12/13 12:22 UTC NOAA

TAF KBAM 131120Z 1312/1412 VRB04KT P6SM FEW100 BKN150
FM132100 VRB06KT P6SM FEW200
FM140400 10006KT P6SM SCT200


Example: see airport list